Flight Track Log - Related Links

Times and Time Zones

All times are in EST time to prevent confusion due to time zone crossing. See the N210PM flight status page for this flight to view local times or setup timezone preferences in your user account.

Time Position Orientation Groundspeed Altitude Reporting Facility
EST Latitude Longitude Course Direction KTS MPH feet Rate Location/Type
Sat 08:58:48 PM 44.4406 -103.7208 128° Southeast 200 230 6,700  Level Denver Center
Sat 08:58:54 PM 44.4378 -103.7158 128° Southeast 205 236 7,000 2,560 Climbing Denver Center
Sat 09:00:03 PM 44.3986 -103.6419 127° Southeast 205 236 9,900 2,678 Climbing Denver Center
Sat 09:00:55 PM 44.3597 -103.5831 133° Southeast 213 245 12,400 2,656 Climbing Denver Center
Sat 09:01:04 PM 44.3564 -103.5728 114° Southeast 205 236 12,600 2,028 Climbing Denver Center
Sat 09:02:06 PM 44.3172 -103.5072 130° Southeast 214 246 14,800 2,129 Climbing Denver Center
Sat 09:03:08 PM 44.2692 -103.4253 129° Southeast 228 262 17,000 1,935 Climbing Denver Center
Sat 09:04:00 PM 44.0160 -102.9988 128° Southeast  Level Estimated
Sat 09:04:10 PM 44.2272 -103.3547 130° Southeast 237 273 18,800  Level Denver Center
Sat 09:05:11 PM 44.1789 -103.2719 129° Southeast 242 278 21,000 1,805 Climbing Denver Center
Sat 09:06:13 PM 44.1344 -103.1967 129° Southeast 249 287 22,500 1,452 Climbing Denver Center
Sat 09:07:15 PM 44.0889 -103.1217 130° Southeast 255 293 24,000 1,512 Climbing Denver Center
Sat 09:08:16 PM 44.0406 -103.0394 129° Southeast 267 307 25,600 1,597 Climbing Denver Center
Sat 09:09:19 PM 43.9844 -102.9456 130° Southeast 274 315 27,300 1,597 Climbing Denver Center
Sat 09:10:20 PM 43.9264 -102.8508 130° Southeast 282 325 28,900 1,463 Climbing Denver Center
Sat 09:11:22 PM 43.8761 -102.7656 129° Southeast 288 331 30,300 1,355 Climbing Denver Center
Sat 09:12:24 PM 43.8150 -102.6647 130° Southeast 296 341 31,700 1,122 Climbing Denver Center
Sat 09:13:25 PM 43.7694 -102.5911 131° Southeast 302 348 32,600 1,024 Climbing Denver Center
Sat 09:14:27 PM 43.6992 -102.4744 130° Southeast 306 352 33,800 1,065 Climbing Denver Center
Sat 09:15:29 PM 43.6461 -102.3881 130° Southeast 309 356 34,800 581 Climbing Denver Center
Sat 09:16:31 PM 43.5894 -102.2967 131° Southeast 323 372 35,000 97 Climbing Denver Center
Sat 09:17:33 PM 43.5194 -102.1803 130° Southeast 349 402 35,000  Level Denver Center
Sat 09:18:34 PM 43.4550 -102.0753 130° Southeast 369 425 35,000  Level Denver Center
Sat 09:19:36 PM 43.3772 -101.9497 130° Southeast 383 441 35,000  Level Denver Center
Sat 09:20:38 PM 43.3103 -101.8431 131° Southeast 385 443 35,000  Level Denver Center
Sat 09:21:39 PM 43.2311 -101.7169 131° Southeast 389 448 35,000  Level Denver Center
Sat 09:22:41 PM 43.1633 -101.6083 131° Southeast 390 449 35,000  Level Denver Center
Sat 09:23:43 PM 43.0961 -101.5014 131° Southeast 387 445 35,000  Level Denver Center
Sat 09:24:45 PM 43.0194 -101.3797 131° Southeast 391 450 35,000  Level Denver Center
Sat 09:25:46 PM 42.9508 -101.2725 131° Southeast 390 449 35,000  Level Denver Center
Sat 09:26:48 PM 42.8711 -101.1469 131° Southeast 392 451 35,000  Level Denver Center
Sat 09:27:51 PM 42.8028 -101.0411 131° Southeast 389 448 35,000  Level Denver Center
Sat 09:28:52 PM 42.7239 -100.9161 131° Southeast 390 449 35,000  Level Denver Center
Sat 09:29:53 PM 42.6661 -100.8281 132° Southeast 390 449 35,000  Level Denver Center
Sat 09:30:55 PM 42.5744 -100.6856 131° Southeast 390 449 35,000  Level Denver Center
Sat 09:31:57 PM 42.5044 -100.5803 132° Southeast 392 451 35,000  Level Denver Center
Sat 09:32:58 PM 42.4358 -100.4736 131° Southeast 389 448 35,000  Level Denver Center
Sat 09:34:00 PM 42.3544 -100.3489 131° Southeast 395 455 35,000  Level Denver Center
Sat 09:35:02 PM 42.2856 -100.2436 131° Southeast 393 452 35,000  Level Denver Center
Sat 09:36:04 PM 42.2047 -100.1214 132° Southeast 391 450 35,000 -293 Level Denver Center
Sat 09:37:05 PM 42.1342 -100.0175 132° Southeast 392 451 34,400 -1,171 Descending Denver Center
Sat 09:38:07 PM 42.0550 -99.8961 131° Southeast 387 445 32,600 -1,742 Descending Denver Center
Sat 09:39:09 PM 41.9886 -99.7975 132° Southeast 377 434 30,800 -1,805 Descending Denver Center
Sat 09:40:10 PM 41.9225 -99.6992 132° Southeast 370 426 28,900 -1,981 Descending Denver Center
Sat 09:40:55 PM 41.8683 -99.6175 132° Southeast 368 423 27,300 -2,038 Descending Minneapolis Center
Sat 09:41:56 PM 41.7981 -99.5136 132° Southeast 372 428 25,300 -1,967 Descending Minneapolis Center
Sat 09:42:57 PM 41.7283 -99.4117 132° Southeast 371 427 23,300 -1,918 Descending Minneapolis Center
Sat 09:43:58 PM 41.6600 -99.3100 132° Southeast 368 423 21,400 -1,967 Descending Minneapolis Center
Sat 09:44:59 PM 41.5928 -99.2111 132° Southeast 362 417 19,300 -1,854 Descending Minneapolis Center
Sat 09:46:01 PM 41.5264 -99.1142 132° Southeast 355 409 17,600 -1,707 Descending Minneapolis Center
Sat 09:47:02 PM 41.4631 -99.0214 132° Southeast 343 395 15,800 -1,721 Descending Minneapolis Center
Sat 09:48:03 PM 41.4014 -98.9328 133° Southeast 331 381 14,100 -1,672 Descending Minneapolis Center
Sat 09:49:04 PM 41.3411 -98.8458 133° Southeast 321 369 12,400 -1,623 Descending Minneapolis Center
Sat 09:50:05 PM 41.2842 -98.7628 132° Southeast 307 353 10,800 -1,574 Descending Minneapolis Center
Sat 09:51:06 PM 41.2289 -98.6817 132° Southeast 295 339 9,200 -1,525 Descending Minneapolis Center
Sat 09:52:07 PM 41.1753 -98.6064 133° Southeast 283 326 7,700 -1,415 Descending Minneapolis Center
Sat 09:53:09 PM 41.1244 -98.5331 133° Southeast 274 315 6,300 -1,355 Descending Minneapolis Center

Login

Don't have an account? Register now (free) for customized features, flight alerts, and more!